sensor_id;sensor_type;location;lat;lon;timestamp;temperature;humidity
46784;DHT22;32544;52.832;13.816;2023-03-17T00:00:32;22.90;42.00
46784;DHT22;32544;52.832;13.816;2023-03-17T00:01:34;22.90;42.00
46784;DHT22;32544;52.832;13.816;2023-03-17T00:02:35;22.90;42.00
46784;DHT22;32544;52.832;13.816;2023-03-17T00:03:37;22.90;42.00
46784;DHT22;32544;52.832;13.816;2023-03-17T00:04:39;22.90;42.00
46784;DHT22;32544;52.832;13.816;2023-03-17T00:05:39;22.90;42.00
46784;DHT22;32544;52.832;13.816;2023-03-17T00:06:40;22.90;42.00
46784;DHT22;32544;52.832;13.816;2023-03-17T00:07:40;22.90;42.00
46784;DHT22;32544;52.832;13.816;2023-03-17T00:08:41;22.90;42.00
46784;DHT22;32544;52.832;13.816;2023-03-17T00:09:42;22.90;42.00
46784;DHT22;32544;52.832;13.816;2023-03-17T00:10:42;22.90;42.00
46784;DHT22;32544;52.832;13.816;2023-03-17T00:11:44;22.90;42.00
46784;DHT22;32544;52.832;13.816;2023-03-17T00:12:44;22.90;42.00
46784;DHT22;32544;52.832;13.816;2023-03-17T00:13:45;22.90;42.00
46784;DHT22;32544;52.832;13.816;2023-03-17T00:14:46;22.90;42.00
46784;DHT22;32544;52.832;13.816;2023-03-17T00:15:49;22.90;42.00
46784;DHT22;32544;52.832;13.816;2023-03-17T00:16:51;22.90;42.00
46784;DHT22;32544;52.832;13.816;2023-03-17T00:17:52;22.90;42.00
46784;DHT22;32544;52.832;13.816;2023-03-17T00:18:53;22.90;42.00
46784;DHT22;32544;52.832;13.816;2023-03-17T00:19:54;22.90;42.00
46784;DHT22;32544;52.832;13.816;2023-03-17T00:20:55;22.90;42.00
46784;DHT22;32544;52.832;13.816;2023-03-17T00:21:56;22.90;42.60
46784;DHT22;32544;52.832;13.816;2023-03-17T00:22:58;22.90;42.70
46784;DHT22;32544;52.832;13.816;2023-03-17T00:24:00;22.90;42.00
46784;DHT22;32544;52.832;13.816;2023-03-17T00:25:01;22.90;42.00
46784;DHT22;32544;52.832;13.816;2023-03-17T00:26:01;22.90;42.00
46784;DHT22;32544;52.832;13.816;2023-03-17T00:27:07;22.90;42.10
46784;DHT22;32544;52.832;13.816;2023-03-17T00:28:14;22.90;42.00
46784;DHT22;32544;52.832;13.816;2023-03-17T00:29:15;22.90;42.10
46784;DHT22;32544;52.832;13.816;2023-03-17T00:30:16;22.90;42.00
46784;DHT22;32544;52.832;13.816;2023-03-17T00:31:18;22.90;42.00
46784;DHT22;32544;52.832;13.816;2023-03-17T00:32:20;22.90;42.00
46784;DHT22;32544;52.832;13.816;2023-03-17T00:33:26;22.90;42.00
46784;DHT22;32544;52.832;13.816;2023-03-17T00:34:27;22.90;42.00
46784;DHT22;32544;52.832;13.816;2023-03-17T00:35:27;22.90;42.00
46784;DHT22;32544;52.832;13.816;2023-03-17T00:36:31;22.90;42.00
46784;DHT22;32544;52.832;13.816;2023-03-17T00:37:32;22.90;42.00
46784;DHT22;32544;52.832;13.816;2023-03-17T00:38:33;22.90;42.00
46784;DHT22;32544;52.832;13.816;2023-03-17T00:39:34;22.90;42.00
46784;DHT22;32544;52.832;13.816;2023-03-17T00:40:34;22.90;42.00
46784;DHT22;32544;52.832;13.816;2023-03-17T00:41:36;22.90;42.00
46784;DHT22;32544;52.832;13.816;2023-03-17T00:42:36;22.90;42.00
46784;DHT22;32544;52.832;13.816;2023-03-17T00:43:37;22.90;42.00
46784;DHT22;32544;52.832;13.816;2023-03-17T00:44:38;22.90;42.00
46784;DHT22;32544;52.832;13.816;2023-03-17T00:45:40;22.90;42.00
46784;DHT22;32544;52.832;13.816;2023-03-17T00:46:40;22.90;42.00
46784;DHT22;32544;52.832;13.816;2023-03-17T00:47:41;22.90;42.00
46784;DHT22;32544;52.832;13.816;2023-03-17T00:48:43;22.90;42.00
46784;DHT22;32544;52.832;13.816;2023-03-17T00:49:45;22.90;42.00
46784;DHT22;32544;52.832;13.816;2023-03-17T00:50:46;22.90;42.00
46784;DHT22;32544;52.832;13.816;2023-03-17T00:51:48;22.90;42.00
46784;DHT22;32544;52.832;13.816;2023-03-17T00:52:50;22.90;42.00
46784;DHT22;32544;52.832;13.816;2023-03-17T00:53:51;22.90;42.00
46784;DHT22;32544;52.832;13.816;2023-03-17T00:54:53;22.90;42.00
46784;DHT22;32544;52.832;13.816;2023-03-17T00:55:55;22.90;42.00
46784;DHT22;32544;52.832;13.816;2023-03-17T00:56:55;22.90;42.00
46784;DHT22;32544;52.832;13.816;2023-03-17T00:57:56;22.90;42.00
46784;DHT22;32544;52.832;13.816;2023-03-17T00:58:58;22.90;42.00
46784;DHT22;32544;52.832;13.816;2023-03-17T00:59:59;22.90;42.00
46784;DHT22;32544;52.832;13.816;2023-03-17T01:01:00;22.80;42.00
46784;DHT22;32544;52.832;13.816;2023-03-17T01:02:01;22.90;42.10
46784;DHT22;32544;52.832;13.816;2023-03-17T01:03:02;22.80;42.00
46784;DHT22;32544;52.832;13.816;2023-03-17T01:04:02;22.80;42.00
46784;DHT22;32544;52.832;13.816;2023-03-17T01:05:03;22.80;42.00
46784;DHT22;32544;52.832;13.816;2023-03-17T01:06:08;22.80;42.00
46784;DHT22;32544;52.832;13.816;2023-03-17T01:07:10;22.80;42.00
46784;DHT22;32544;52.832;13.816;2023-03-17T01:08:12;22.80;42.00
46784;DHT22;32544;52.832;13.816;2023-03-17T01:09:15;22.80;42.00
46784;DHT22;32544;52.832;13.816;2023-03-17T01:10:17;22.80;42.00
46784;DHT22;32544;52.832;13.816;2023-03-17T01:11:18;22.80;42.00
46784;DHT22;32544;52.832;13.816;2023-03-17T01:12:20;22.80;42.00
46784;DHT22;32544;52.832;13.816;2023-03-17T01:13:22;22.80;42.00
46784;DHT22;32544;52.832;13.816;2023-03-17T01:14:23;22.80;42.00
46784;DHT22;32544;52.832;13.816;2023-03-17T01:15:25;22.80;42.00
46784;DHT22;32544;52.832;13.816;2023-03-17T01:16:25;22.80;42.00
46784;DHT22;32544;52.832;13.816;2023-03-17T01:17:27;22.80;42.00
46784;DHT22;32544;52.832;13.816;2023-03-17T01:18:28;22.80;42.00
46784;DHT22;32544;52.832;13.816;2023-03-17T01:19:28;22.80;42.60
46784;DHT22;32544;52.832;13.816;2023-03-17T01:20:30;22.90;42.00
46784;DHT22;32544;52.832;13.816;2023-03-17T01:21:32;22.80;41.80
46784;DHT22;32544;52.832;13.816;2023-03-17T01:22:32;22.80;41.80
46784;DHT22;32544;52.832;13.816;2023-03-17T01:23:33;22.80;41.80
46784;DHT22;32544;52.832;13.816;2023-03-17T01:24:33;22.80;41.80
46784;DHT22;32544;52.832;13.816;2023-03-17T01:25:34;22.80;41.80
46784;DHT22;32544;52.832;13.816;2023-03-17T01:26:35;22.80;41.80
46784;DHT22;32544;52.832;13.816;2023-03-17T01:27:36;22.80;41.80
46784;DHT22;32544;52.832;13.816;2023-03-17T01:28:37;22.80;41.80
46784;DHT22;32544;52.832;13.816;2023-03-17T01:29:38;22.80;41.80
46784;DHT22;32544;52.832;13.816;2023-03-17T01:30:39;22.80;41.80
46784;DHT22;32544;52.832;13.816;2023-03-17T01:31:39;22.80;41.80
46784;DHT22;32544;52.832;13.816;2023-03-17T01:32:40;22.80;41.80
46784;DHT22;32544;52.832;13.816;2023-03-17T01:33:40;22.80;42.10
46784;DHT22;32544;52.832;13.816;2023-03-17T01:34:41;22.80;41.90
46784;DHT22;32544;52.832;13.816;2023-03-17T01:35:42;22.80;41.90
46784;DHT22;32544;52.832;13.816;2023-03-17T01:36:43;22.80;41.90
46784;DHT22;32544;52.832;13.816;2023-03-17T01:37:45;22.80;41.90
46784;DHT22;32544;52.832;13.816;2023-03-17T01:38:46;22.80;41.90
46784;DHT22;32544;52.832;13.816;2023-03-17T01:39:50;22.80;41.90
46784;DHT22;32544;52.832;13.816;2023-03-17T01:40:53;22.80;41.90
46784;DHT22;32544;52.832;13.816;2023-03-17T01:41:57;22.80;41.80
46784;DHT22;32544;52.832;13.816;2023-03-17T01:44:02;22.80;41.90
46784;DHT22;32544;52.832;13.816;2023-03-17T01:45:04;22.80;42.00
46784;DHT22;32544;52.832;13.816;2023-03-17T01:46:13;22.80;42.00
46784;DHT22;32544;52.832;13.816;2023-03-17T01:47:14;22.70;41.90
46784;DHT22;32544;52.832;13.816;2023-03-17T01:48:16;22.80;42.00
46784;DHT22;32544;52.832;13.816;2023-03-17T01:49:28;22.80;41.90
46784;DHT22;32544;52.832;13.816;2023-03-17T01:50:30;22.80;41.90
46784;DHT22;32544;52.832;13.816;2023-03-17T01:52:32;22.80;42.00
46784;DHT22;32544;52.832;13.816;2023-03-17T01:53:35;22.80;41.90
46784;DHT22;32544;52.832;13.816;2023-03-17T01:55:39;22.80;41.90
46784;DHT22;32544;52.832;13.816;2023-03-17T01:56:40;22.80;42.00
46784;DHT22;32544;52.832;13.816;2023-03-17T01:57:46;22.80;42.00
46784;DHT22;32544;52.832;13.816;2023-03-17T01:58:53;22.80;41.90
46784;DHT22;32544;52.832;13.816;2023-03-17T02:00:04;22.80;41.90
46784;DHT22;32544;52.832;13.816;2023-03-17T02:01:13;22.80;42.00
46784;DHT22;32544;52.832;13.816;2023-03-17T02:02:16;22.80;42.00
46784;DHT22;32544;52.832;13.816;2023-03-17T02:03:18;22.80;42.00
46784;DHT22;32544;52.832;13.816;2023-03-17T02:04:18;22.80;41.90
46784;DHT22;32544;52.832;13.816;2023-03-17T02:05:22;22.80;41.90
46784;DHT22;32544;52.832;13.816;2023-03-17T02:06:23;22.70;41.90
46784;DHT22;32544;52.832;13.816;2023-03-17T02:07:26;22.80;42.00
46784;DHT22;32544;52.832;13.816;2023-03-17T02:08:26;22.80;42.00
46784;DHT22;32544;52.832;13.816;2023-03-17T02:09:27;22.80;41.90
46784;DHT22;32544;52.832;13.816;2023-03-17T02:10:28;22.80;41.90
46784;DHT22;32544;52.832;13.816;2023-03-17T02:11:29;22.80;42.00
46784;DHT22;32544;52.832;13.816;2023-03-17T02:12:30;22.80;42.00
46784;DHT22;32544;52.832;13.816;2023-03-17T02:13:30;22.80;42.00
46784;DHT22;32544;52.832;13.816;2023-03-17T02:14:32;22.70;41.90
46784;DHT22;32544;52.832;13.816;2023-03-17T02:15:37;22.80;42.00
46784;DHT22;32544;52.832;13.816;2023-03-17T02:16:38;22.80;41.90
46784;DHT22;32544;52.832;13.816;2023-03-17T02:17:38;22.80;41.80
46784;DHT22;32544;52.832;13.816;2023-03-17T02:18:39;22.80;41.90
46784;DHT22;32544;52.832;13.816;2023-03-17T02:19:40;22.80;41.90
46784;DHT22;32544;52.832;13.816;2023-03-17T02:21:49;22.80;42.00
46784;DHT22;32544;52.832;13.816;2023-03-17T02:22:51;22.70;41.90
46784;DHT22;32544;52.832;13.816;2023-03-17T02:23:53;22.80;41.90
46784;DHT22;32544;52.832;13.816;2023-03-17T02:24:55;22.80;42.00
46784;DHT22;32544;52.832;13.816;2023-03-17T02:25:57;22.80;42.00
46784;DHT22;32544;52.832;13.816;2023-03-17T02:26:59;22.80;41.90
46784;DHT22;32544;52.832;13.816;2023-03-17T02:28:05;22.80;41.90
46784;DHT22;32544;52.832;13.816;2023-03-17T02:29:07;22.80;41.90
46784;DHT22;32544;52.832;13.816;2023-03-17T02:30:08;22.80;42.00
46784;DHT22;32544;52.832;13.816;2023-03-17T02:31:09;22.80;42.00
46784;DHT22;32544;52.832;13.816;2023-03-17T02:32:12;22.80;42.00
46784;DHT22;32544;52.832;13.816;2023-03-17T02:33:13;22.80;41.90
46784;DHT22;32544;52.832;13.816;2023-03-17T02:34:14;22.80;41.90
46784;DHT22;32544;52.832;13.816;2023-03-17T02:35:15;22.80;41.90
46784;DHT22;32544;52.832;13.816;2023-03-17T02:36:16;22.70;41.90
46784;DHT22;32544;52.832;13.816;2023-03-17T02:37:18;22.80;41.80
46784;DHT22;32544;52.832;13.816;2023-03-17T02:38:19;22.80;42.00
46784;DHT22;32544;52.832;13.816;2023-03-17T02:39:20;22.70;41.90
46784;DHT22;32544;52.832;13.816;2023-03-17T02:40:20;22.80;41.90
46784;DHT22;32544;52.832;13.816;2023-03-17T02:41:21;22.80;41.90
46784;DHT22;32544;52.832;13.816;2023-03-17T02:42:22;22.80;41.80
46784;DHT22;32544;52.832;13.816;2023-03-17T02:43:23;22.80;41.90
46784;DHT22;32544;52.832;13.816;2023-03-17T02:44:23;22.80;41.80
46784;DHT22;32544;52.832;13.816;2023-03-17T02:45:27;22.80;41.90
46784;DHT22;32544;52.832;13.816;2023-03-17T02:46:27;22.80;41.90
46784;DHT22;32544;52.832;13.816;2023-03-17T02:47:28;22.70;41.70
46784;DHT22;32544;52.832;13.816;2023-03-17T02:48:28;22.80;41.90
46784;DHT22;32544;52.832;13.816;2023-03-17T02:49:29;22.80;41.80
46784;DHT22;32544;52.832;13.816;2023-03-17T02:50:31;22.70;41.80
46784;DHT22;32544;52.832;13.816;2023-03-17T02:51:32;22.80;41.90
46784;DHT22;32544;52.832;13.816;2023-03-17T02:52:32;22.80;41.80
46784;DHT22;32544;52.832;13.816;2023-03-17T02:53:33;22.80;41.80
46784;DHT22;32544;52.832;13.816;2023-03-17T02:54:34;22.70;41.70
46784;DHT22;32544;52.832;13.816;2023-03-17T02:55:35;22.80;41.80
46784;DHT22;32544;52.832;13.816;2023-03-17T02:56:35;22.80;41.90
46784;DHT22;32544;52.832;13.816;2023-03-17T02:57:36;22.70;42.10
46784;DHT22;32544;52.832;13.816;2023-03-17T02:58:36;22.70;41.90
46784;DHT22;32544;52.832;13.816;2023-03-17T02:59:37;22.70;41.80
46784;DHT22;32544;52.832;13.816;2023-03-17T03:00:37;22.70;41.70
46784;DHT22;32544;52.832;13.816;2023-03-17T03:01:39;22.70;41.80
46784;DHT22;32544;52.832;13.816;2023-03-17T03:02:40;22.70;41.80
46784;DHT22;32544;52.832;13.816;2023-03-17T03:03:41;22.70;42.40
46784;DHT22;32544;52.832;13.816;2023-03-17T03:04:42;22.70;41.80
46784;DHT22;32544;52.832;13.816;2023-03-17T03:05:42;22.70;41.80
46784;DHT22;32544;52.832;13.816;2023-03-17T03:06:43;22.70;41.80
46784;DHT22;32544;52.832;13.816;2023-03-17T03:07:44;22.70;41.70
46784;DHT22;32544;52.832;13.816;2023-03-17T03:08:44;22.70;41.70
46784;DHT22;32544;52.832;13.816;2023-03-17T03:09:45;22.70;41.70
46784;DHT22;32544;52.832;13.816;2023-03-17T03:10:46;22.70;41.80
46784;DHT22;32544;52.832;13.816;2023-03-17T03:11:47;22.70;41.70
46784;DHT22;32544;52.832;13.816;2023-03-17T03:12:47;22.70;41.70
46784;DHT22;32544;52.832;13.816;2023-03-17T03:13:48;22.70;41.80
46784;DHT22;32544;52.832;13.816;2023-03-17T03:14:48;22.70;41.60
46784;DHT22;32544;52.832;13.816;2023-03-17T03:15:49;22.70;41.80
46784;DHT22;32544;52.832;13.816;2023-03-17T03:16:49;22.70;41.80
46784;DHT22;32544;52.832;13.816;2023-03-17T03:17:50;22.70;41.70
46784;DHT22;32544;52.832;13.816;2023-03-17T03:18:50;22.70;41.70
46784;DHT22;32544;52.832;13.816;2023-03-17T03:19:51;22.70;41.80
46784;DHT22;32544;52.832;13.816;2023-03-17T03:20:51;22.80;41.80
46784;DHT22;32544;52.832;13.816;2023-03-17T03:21:52;22.70;41.70
46784;DHT22;32544;52.832;13.816;2023-03-17T03:22:53;22.70;41.70
46784;DHT22;32544;52.832;13.816;2023-03-17T03:23:53;22.70;41.70
46784;DHT22;32544;52.832;13.816;2023-03-17T03:24:54;22.70;41.70
46784;DHT22;32544;52.832;13.816;2023-03-17T03:25:54;22.70;41.80
46784;DHT22;32544;52.832;13.816;2023-03-17T03:26:55;22.70;41.70
46784;DHT22;32544;52.832;13.816;2023-03-17T03:27:56;22.70;41.70
46784;DHT22;32544;52.832;13.816;2023-03-17T03:28:57;22.70;42.30
46784;DHT22;32544;52.832;13.816;2023-03-17T03:29:59;22.70;41.70
46784;DHT22;32544;52.832;13.816;2023-03-17T03:31:00;22.70;41.80
46784;DHT22;32544;52.832;13.816;2023-03-17T03:32:01;22.70;41.70
46784;DHT22;32544;52.832;13.816;2023-03-17T03:33:01;22.70;41.70
46784;DHT22;32544;52.832;13.816;2023-03-17T03:34:02;22.70;41.70
46784;DHT22;32544;52.832;13.816;2023-03-17T03:35:03;22.70;41.60
46784;DHT22;32544;52.832;13.816;2023-03-17T03:36:04;22.70;41.70
46784;DHT22;32544;52.832;13.816;2023-03-17T03:37:04;22.70;41.70
46784;DHT22;32544;52.832;13.816;2023-03-17T03:38:05;22.70;41.70
46784;DHT22;32544;52.832;13.816;2023-03-17T03:39:06;22.70;41.70
46784;DHT22;32544;52.832;13.816;2023-03-17T03:40:08;22.70;41.70
46784;DHT22;32544;52.832;13.816;2023-03-17T03:41:09;22.70;41.70
46784;DHT22;32544;52.832;13.816;2023-03-17T03:42:10;22.70;41.70
46784;DHT22;32544;52.832;13.816;2023-03-17T03:43:11;22.70;41.70
46784;DHT22;32544;52.832;13.816;2023-03-17T03:44:12;22.70;41.70
46784;DHT22;32544;52.832;13.816;2023-03-17T03:45:13;22.70;41.70
46784;DHT22;32544;52.832;13.816;2023-03-17T03:46:13;22.70;41.80
46784;DHT22;32544;52.832;13.816;2023-03-17T03:47:14;22.70;41.80
46784;DHT22;32544;52.832;13.816;2023-03-17T03:48:15;22.70;41.80
46784;DHT22;32544;52.832;13.816;2023-03-17T03:49:16;22.70;41.70
46784;DHT22;32544;52.832;13.816;2023-03-17T03:50:17;22.70;41.70
46784;DHT22;32544;52.832;13.816;2023-03-17T03:51:17;22.70;41.60
46784;DHT22;32544;52.832;13.816;2023-03-17T03:52:18;22.70;41.70
46784;DHT22;32544;52.832;13.816;2023-03-17T03:53:19;22.70;41.70
46784;DHT22;32544;52.832;13.816;2023-03-17T03:54:19;22.70;41.70
46784;DHT22;32544;52.832;13.816;2023-03-17T03:55:20;22.70;41.70
46784;DHT22;32544;52.832;13.816;2023-03-17T03:56:20;22.70;41.70
46784;DHT22;32544;52.832;13.816;2023-03-17T03:57:21;22.70;41.60
46784;DHT22;32544;52.832;13.816;2023-03-17T03:58:22;22.70;41.60
46784;DHT22;32544;52.832;13.816;2023-03-17T03:59:22;22.70;41.90
46784;DHT22;32544;52.832;13.816;2023-03-17T04:00:23;22.70;41.70
46784;DHT22;32544;52.832;13.816;2023-03-17T04:01:23;22.70;41.60
46784;DHT22;32544;52.832;13.816;2023-03-17T04:02:24;22.70;41.70
46784;DHT22;32544;52.832;13.816;2023-03-17T04:03:25;22.70;41.60
46784;DHT22;32544;52.832;13.816;2023-03-17T04:04:26;22.70;41.80
46784;DHT22;32544;52.832;13.816;2023-03-17T04:05:26;22.70;41.70
46784;DHT22;32544;52.832;13.816;2023-03-17T04:06:27;22.70;41.70
46784;DHT22;32544;52.832;13.816;2023-03-17T04:07:28;22.70;41.70
46784;DHT22;32544;52.832;13.816;2023-03-17T04:08:28;22.70;41.60
46784;DHT22;32544;52.832;13.816;2023-03-17T04:09:31;22.70;41.60
46784;DHT22;32544;52.832;13.816;2023-03-17T04:10:31;22.70;41.60
46784;DHT22;32544;52.832;13.816;2023-03-17T04:11:32;22.70;41.70
46784;DHT22;32544;52.832;13.816;2023-03-17T04:12:33;22.70;41.60
46784;DHT22;32544;52.832;13.816;2023-03-17T04:13:33;22.70;41.70
46784;DHT22;32544;52.832;13.816;2023-03-17T04:14:34;22.70;41.50
46784;DHT22;32544;52.832;13.816;2023-03-17T04:15:35;22.70;41.70
46784;DHT22;32544;52.832;13.816;2023-03-17T04:16:36;22.70;41.70
46784;DHT22;32544;52.832;13.816;2023-03-17T04:17:37;22.70;41.60
46784;DHT22;32544;52.832;13.816;2023-03-17T04:18:37;22.70;41.60
46784;DHT22;32544;52.832;13.816;2023-03-17T04:19:38;22.70;41.50
46784;DHT22;32544;52.832;13.816;2023-03-17T04:20:39;22.70;41.50
46784;DHT22;32544;52.832;13.816;2023-03-17T04:21:39;22.70;41.50
46784;DHT22;32544;52.832;13.816;2023-03-17T04:22:40;22.70;41.60
46784;DHT22;32544;52.832;13.816;2023-03-17T04:23:41;22.70;41.60
46784;DHT22;32544;52.832;13.816;2023-03-17T04:24:42;22.70;41.70
46784;DHT22;32544;52.832;13.816;2023-03-17T04:25:42;22.70;41.70
46784;DHT22;32544;52.832;13.816;2023-03-17T04:26:43;22.70;41.50
46784;DHT22;32544;52.832;13.816;2023-03-17T04:27:43;22.70;41.60
46784;DHT22;32544;52.832;13.816;2023-03-17T04:28:44;22.70;41.70
46784;DHT22;32544;52.832;13.816;2023-03-17T04:29:44;22.70;41.60
46784;DHT22;32544;52.832;13.816;2023-03-17T04:30:45;22.70;41.50
46784;DHT22;32544;52.832;13.816;2023-03-17T04:31:46;22.70;41.60
46784;DHT22;32544;52.832;13.816;2023-03-17T04:32:47;22.70;41.40
46784;DHT22;32544;52.832;13.816;2023-03-17T04:33:47;22.70;41.50
46784;DHT22;32544;52.832;13.816;2023-03-17T04:34:48;22.70;41.60
46784;DHT22;32544;52.832;13.816;2023-03-17T04:35:49;22.70;41.50
46784;DHT22;32544;52.832;13.816;2023-03-17T04:36:49;22.70;41.50
46784;DHT22;32544;52.832;13.816;2023-03-17T04:37:50;22.70;41.60
46784;DHT22;32544;52.832;13.816;2023-03-17T04:38:50;22.70;41.50
46784;DHT22;32544;52.832;13.816;2023-03-17T04:39:51;22.70;41.60
46784;DHT22;32544;52.832;13.816;2023-03-17T04:40:52;22.70;41.50
46784;DHT22;32544;52.832;13.816;2023-03-17T04:41:53;22.70;41.60
46784;DHT22;32544;52.832;13.816;2023-03-17T04:42:53;22.70;41.50
46784;DHT22;32544;52.832;13.816;2023-03-17T04:43:54;22.70;41.60
46784;DHT22;32544;52.832;13.816;2023-03-17T04:44:54;22.70;41.60
46784;DHT22;32544;52.832;13.816;2023-03-17T04:45:55;22.70;41.60
46784;DHT22;32544;52.832;13.816;2023-03-17T04:46:56;22.70;41.60
46784;DHT22;32544;52.832;13.816;2023-03-17T04:47:57;22.70;41.50
46784;DHT22;32544;52.832;13.816;2023-03-17T04:48:57;22.70;41.60
46784;DHT22;32544;52.832;13.816;2023-03-17T04:49:58;22.70;41.60
46784;DHT22;32544;52.832;13.816;2023-03-17T04:50:58;22.70;41.50
46784;DHT22;32544;52.832;13.816;2023-03-17T04:51:59;22.70;41.60
46784;DHT22;32544;52.832;13.816;2023-03-17T04:53:00;22.70;41.60
46784;DHT22;32544;52.832;13.816;2023-03-17T04:54:00;22.70;41.70
46784;DHT22;32544;52.832;13.816;2023-03-17T04:55:01;22.70;41.40
46784;DHT22;32544;52.832;13.816;2023-03-17T04:56:02;22.70;41.60
46784;DHT22;32544;52.832;13.816;2023-03-17T04:57:03;22.70;41.60
46784;DHT22;32544;52.832;13.816;2023-03-17T04:58:03;22.70;41.70
46784;DHT22;32544;52.832;13.816;2023-03-17T04:59:04;22.70;41.60
46784;DHT22;32544;52.832;13.816;2023-03-17T05:00:05;22.70;41.70
46784;DHT22;32544;52.832;13.816;2023-03-17T05:01:06;22.70;41.70
46784;DHT22;32544;52.832;13.816;2023-03-17T05:02:07;22.70;41.70
46784;DHT22;32544;52.832;13.816;2023-03-17T05:03:08;22.70;41.60
46784;DHT22;32544;52.832;13.816;2023-03-17T05:04:09;22.70;41.60
46784;DHT22;32544;52.832;13.816;2023-03-17T05:05:09;22.70;42.00
46784;DHT22;32544;52.832;13.816;2023-03-17T05:06:10;22.70;41.60
46784;DHT22;32544;52.832;13.816;2023-03-17T05:07:11;22.70;41.50
46784;DHT22;32544;52.832;13.816;2023-03-17T05:08:12;22.70;41.70
46784;DHT22;32544;52.832;13.816;2023-03-17T05:09:12;22.70;41.60
46784;DHT22;32544;52.832;13.816;2023-03-17T05:10:13;22.70;41.60
46784;DHT22;32544;52.832;13.816;2023-03-17T05:11:13;22.70;41.70
46784;DHT22;32544;52.832;13.816;2023-03-17T05:12:14;22.70;41.70
46784;DHT22;32544;52.832;13.816;2023-03-17T05:13:15;22.70;41.60
46784;DHT22;32544;52.832;13.816;2023-03-17T05:14:16;22.70;41.60
46784;DHT22;32544;52.832;13.816;2023-03-17T05:15:16;22.60;41.60
46784;DHT22;32544;52.832;13.816;2023-03-17T05:16:17;22.70;41.60
46784;DHT22;32544;52.832;13.816;2023-03-17T05:17:18;22.60;41.60
46784;DHT22;32544;52.832;13.816;2023-03-17T05:18:19;22.70;42.30
46784;DHT22;32544;52.832;13.816;2023-03-17T05:19:20;22.60;41.70
46784;DHT22;32544;52.832;13.816;2023-03-17T05:20:20;22.60;42.30
46784;DHT22;32544;52.832;13.816;2023-03-17T05:21:21;22.60;41.60
46784;DHT22;32544;52.832;13.816;2023-03-17T05:22:21;22.60;41.60
46784;DHT22;32544;52.832;13.816;2023-03-17T05:23:22;22.60;41.50
46784;DHT22;32544;52.832;13.816;2023-03-17T05:24:22;22.60;41.70
46784;DHT22;32544;52.832;13.816;2023-03-17T05:25:23;22.60;41.70
46784;DHT22;32544;52.832;13.816;2023-03-17T05:26:23;22.60;41.60
46784;DHT22;32544;52.832;13.816;2023-03-17T05:27:24;22.60;41.70
46784;DHT22;32544;52.832;13.816;2023-03-17T05:28:25;22.60;41.70
46784;DHT22;32544;52.832;13.816;2023-03-17T05:29:26;22.60;41.60
46784;DHT22;32544;52.832;13.816;2023-03-17T05:30:27;22.60;41.70
46784;DHT22;32544;52.832;13.816;2023-03-17T05:31:27;22.60;41.60
46784;DHT22;32544;52.832;13.816;2023-03-17T05:32:29;22.60;41.70
46784;DHT22;32544;52.832;13.816;2023-03-17T05:33:29;22.60;41.60
46784;DHT22;32544;52.832;13.816;2023-03-17T05:34:30;22.60;41.70
46784;DHT22;32544;52.832;13.816;2023-03-17T05:35:31;22.60;41.70
46784;DHT22;32544;52.832;13.816;2023-03-17T05:36:31;22.60;41.70
46784;DHT22;32544;52.832;13.816;2023-03-17T05:37:32;22.60;41.70
46784;DHT22;32544;52.832;13.816;2023-03-17T05:38:33;22.60;41.70
46784;DHT22;32544;52.832;13.816;2023-03-17T05:39:34;22.60;41.70
46784;DHT22;32544;52.832;13.816;2023-03-17T05:40:34;22.60;41.70
46784;DHT22;32544;52.832;13.816;2023-03-17T05:41:36;22.70;41.70
46784;DHT22;32544;52.832;13.816;2023-03-17T05:42:37;22.60;41.60
46784;DHT22;32544;52.832;13.816;2023-03-17T05:43:37;22.70;41.60
46784;DHT22;32544;52.832;13.816;2023-03-17T05:44:38;22.70;41.70
46784;DHT22;32544;52.832;13.816;2023-03-17T05:45:39;22.70;41.80
46784;DHT22;32544;52.832;13.816;2023-03-17T05:46:40;22.70;41.70
46784;DHT22;32544;52.832;13.816;2023-03-17T05:47:41;22.70;41.60
46784;DHT22;32544;52.832;13.816;2023-03-17T05:48:42;22.70;41.40
46784;DHT22;32544;52.832;13.816;2023-03-17T05:49:42;22.70;41.40
46784;DHT22;32544;52.832;13.816;2023-03-17T05:50:43;22.70;41.40
46784;DHT22;32544;52.832;13.816;2023-03-17T05:51:43;22.70;41.50
46784;DHT22;32544;52.832;13.816;2023-03-17T05:52:44;22.80;41.40
46784;DHT22;32544;52.832;13.816;2023-03-17T05:53:44;22.80;41.40
46784;DHT22;32544;52.832;13.816;2023-03-17T05:54:45;22.80;41.30
46784;DHT22;32544;52.832;13.816;2023-03-17T05:55:48;22.90;41.20
46784;DHT22;32544;52.832;13.816;2023-03-17T05:56:48;22.90;41.20
46784;DHT22;32544;52.832;13.816;2023-03-17T05:57:49;22.90;41.20
46784;DHT22;32544;52.832;13.816;2023-03-17T05:58:50;22.90;41.10
46784;DHT22;32544;52.832;13.816;2023-03-17T05:59:51;23.00;41.10
46784;DHT22;32544;52.832;13.816;2023-03-17T06:00:51;23.00;41.10
46784;DHT22;32544;52.832;13.816;2023-03-17T06:01:52;23.00;41.00
46784;DHT22;32544;52.832;13.816;2023-03-17T06:02:52;23.10;41.00
46784;DHT22;32544;52.832;13.816;2023-03-17T06:03:53;23.10;41.00
46784;DHT22;32544;52.832;13.816;2023-03-17T06:04:53;23.10;40.90
46784;DHT22;32544;52.832;13.816;2023-03-17T06:05:54;23.10;40.90
46784;DHT22;32544;52.832;13.816;2023-03-17T06:06:55;23.10;40.80
46784;DHT22;32544;52.832;13.816;2023-03-17T06:07:55;23.10;40.90
46784;DHT22;32544;52.832;13.816;2023-03-17T06:08:56;23.10;40.80
46784;DHT22;32544;52.832;13.816;2023-03-17T06:09:56;23.20;40.80
46784;DHT22;32544;52.832;13.816;2023-03-17T06:10:57;23.10;40.70
46784;DHT22;32544;52.832;13.816;2023-03-17T06:11:58;23.20;40.80
46784;DHT22;32544;52.832;13.816;2023-03-17T06:12:59;23.20;40.70
46784;DHT22;32544;52.832;13.816;2023-03-17T06:13:59;23.20;40.80
46784;DHT22;32544;52.832;13.816;2023-03-17T06:15:01;23.20;40.80
46784;DHT22;32544;52.832;13.816;2023-03-17T06:16:02;23.20;40.80
46784;DHT22;32544;52.832;13.816;2023-03-17T06:17:02;23.20;40.80
46784;DHT22;32544;52.832;13.816;2023-03-17T06:18:03;23.20;40.80
46784;DHT22;32544;52.832;13.816;2023-03-17T06:19:04;23.20;40.80
46784;DHT22;32544;52.832;13.816;2023-03-17T06:20:05;23.20;40.80
46784;DHT22;32544;52.832;13.816;2023-03-17T06:21:06;23.20;40.80
46784;DHT22;32544;52.832;13.816;2023-03-17T06:22:07;23.20;40.80
46784;DHT22;32544;52.832;13.816;2023-03-17T06:23:08;23.20;40.80
46784;DHT22;32544;52.832;13.816;2023-03-17T06:24:09;23.20;40.90